ETD641 OMAA-HKJK
Flight info
| Callsign | ETD641 |
|---|---|
| Flight time | N/A |
| Altitude | 36000 |
| Route | KANIP N318 LAKLU Q204 HAI B400 RIGAM B403 BOMIX UB403 MAV UP312 WAV |
| Aircraft | A320/M-S/C |
Departure
| Time | N/A |
|---|---|
| Airport | Zayed International Airport (OMAA) |
Arrival
| Time | 2026-05-06 09:55 |
|---|---|
| Airport | Jomo Kenyatta International Airport (HKJK) |
| Time | Latitude | Longitude | Altitude | Speed | Heading |
|---|---|---|---|---|---|
| 2026-05-06 06:16 | 18.24261 | 55.23750 | 31880 ft | 471 kts | 210° |
| 2026-05-06 06:16 | 18.21416 | 55.22056 | 31880 ft | 471 kts | 210° |
| 2026-05-06 06:16 | 18.15713 | 55.18661 | 31879 ft | 471 kts | 210° |
| 2026-05-06 06:17 | 18.09766 | 55.15755 | 31879 ft | 472 kts | 204° |
| 2026-05-06 06:17 | 18.03738 | 55.13037 | 31878 ft | 472 kts | 204° |
| 2026-05-06 06:18 | 17.97704 | 55.10322 | 31878 ft | 471 kts | 204° |
| 2026-05-06 06:18 | 17.91666 | 55.07607 | 31877 ft | 472 kts | 204° |
| 2026-05-06 06:19 | 17.85669 | 55.04916 | 31877 ft | 471 kts | 204° |
| 2026-05-06 06:19 | 17.79642 | 55.02215 | 31877 ft | 471 kts | 204° |
| 2026-05-06 06:20 | 17.73605 | 54.99512 | 31877 ft | 471 kts | 204° |
| 2026-05-06 06:20 | 17.67568 | 54.96812 | 31876 ft | 471 kts | 204° |
| 2026-05-06 06:21 | 17.61543 | 54.94120 | 31876 ft | 471 kts | 204° |
| 2026-05-06 06:21 | 17.55505 | 54.91424 | 31876 ft | 471 kts | 204° |
| 2026-05-06 06:22 | 17.49464 | 54.88728 | 31876 ft | 472 kts | 204° |
| 2026-05-06 06:22 | 17.43424 | 54.86036 | 31875 ft | 471 kts | 204° |
| 2026-05-06 06:23 | 17.37426 | 54.83364 | 31875 ft | 471 kts | 204° |
| 2026-05-06 06:23 | 17.31388 | 54.80677 | 31875 ft | 471 kts | 204° |
| 2026-05-06 06:24 | 17.25440 | 54.77784 | 31874 ft | 470 kts | 212° |
| 2026-05-06 06:24 | 17.19911 | 54.74105 | 31875 ft | 471 kts | 213° |
| 2026-05-06 06:25 | 17.14397 | 54.70406 | 31875 ft | 471 kts | 213° |
| 2026-05-06 06:26 | 17.06159 | 54.64869 | 31875 ft | 472 kts | 213° |
| 2026-05-06 06:26 | 17.00636 | 54.61151 | 31875 ft | 471 kts | 213° |
| 2026-05-06 06:27 | 16.95121 | 54.57438 | 32164 ft | 472 kts | 213° |
| 2026-05-06 06:27 | 16.92366 | 54.55583 | 32535 ft | 470 kts | 213° |
| 2026-05-06 06:27 | 16.89612 | 54.53729 | 32779 ft | 472 kts | 213° |
| 2026-05-06 06:28 | 16.84078 | 54.50041 | 32869 ft | 471 kts | 213° |
| 2026-05-06 06:28 | 16.78563 | 54.46371 | 32875 ft | 469 kts | 213° |
| 2026-05-06 06:29 | 16.73058 | 54.42708 | 32876 ft | 469 kts | 212° |
| 2026-05-06 06:29 | 16.67543 | 54.39038 | 32875 ft | 470 kts | 212° |
| 2026-05-06 06:30 | 16.62024 | 54.35367 | 32876 ft | 470 kts | 212° |
| 2026-05-06 06:30 | 16.56519 | 54.31705 | 32876 ft | 469 kts | 212° |
| 2026-05-06 06:31 | 16.51006 | 54.28041 | 32876 ft | 470 kts | 212° |
| 2026-05-06 06:31 | 16.45487 | 54.24373 | 32876 ft | 470 kts | 212° |
| 2026-05-06 06:32 | 16.40002 | 54.20731 | 32876 ft | 470 kts | 212° |
| 2026-05-06 06:32 | 16.34485 | 54.17068 | 32876 ft | 470 kts | 212° |
| 2026-05-06 06:33 | 16.28979 | 54.13416 | 32877 ft | 470 kts | 212° |
| 2026-05-06 06:33 | 16.23457 | 54.09755 | 32877 ft | 470 kts | 212° |
| 2026-05-06 06:34 | 16.17941 | 54.06100 | 32877 ft | 470 kts | 212° |
| 2026-05-06 06:34 | 16.13358 | 54.03066 | 32878 ft | 470 kts | 212° |
| 2026-05-06 06:35 | 16.07842 | 53.99416 | 32879 ft | 470 kts | 212° |
| 2026-05-06 06:35 | 16.01425 | 53.95172 | 32879 ft | 470 kts | 212° |
| 2026-05-06 06:36 | 15.96795 | 53.92112 | 32876 ft | 470 kts | 212° |
| 2026-05-06 06:36 | 15.91304 | 53.88485 | 32876 ft | 470 kts | 212° |
| 2026-05-06 06:37 | 15.85793 | 53.84838 | 32876 ft | 470 kts | 212° |
| 2026-05-06 06:37 | 15.80280 | 53.81172 | 32877 ft | 470 kts | 212° |
| 2026-05-06 06:38 | 15.74771 | 53.77505 | 32877 ft | 470 kts | 212° |
| 2026-05-06 06:38 | 15.69263 | 53.73837 | 32877 ft | 470 kts | 212° |
| 2026-05-06 06:39 | 15.63755 | 53.70168 | 32877 ft | 470 kts | 212° |
| 2026-05-06 06:39 | 15.58241 | 53.66496 | 32877 ft | 470 kts | 212° |
| 2026-05-06 06:40 | 15.52769 | 53.62853 | 32878 ft | 470 kts | 212° |
| 2026-05-06 06:40 | 15.47256 | 53.59183 | 32878 ft | 470 kts | 212° |
| 2026-05-06 06:41 | 15.41723 | 53.55540 | 32878 ft | 471 kts | 211° |
| 2026-05-06 06:41 | 15.36168 | 53.51977 | 32878 ft | 470 kts | 211° |
| 2026-05-06 06:42 | 15.30598 | 53.48408 | 32878 ft | 470 kts | 211° |
| 2026-05-06 06:42 | 15.25034 | 53.44843 | 32879 ft | 470 kts | 211° |
| 2026-05-06 06:43 | 15.19471 | 53.41279 | 32879 ft | 470 kts | 211° |
| 2026-05-06 06:43 | 15.13939 | 53.37736 | 32879 ft | 470 kts | 211° |
| 2026-05-06 06:44 | 15.08391 | 53.34183 | 32879 ft | 470 kts | 211° |
| 2026-05-06 06:44 | 15.02814 | 53.30614 | 32879 ft | 470 kts | 211° |
| 2026-05-06 06:45 | 14.97253 | 53.27056 | 32879 ft | 470 kts | 211° |
| 2026-05-06 06:45 | 14.91690 | 53.23500 | 32879 ft | 470 kts | 211° |
| 2026-05-06 06:46 | 14.86118 | 53.19938 | 32879 ft | 470 kts | 211° |
| 2026-05-06 06:46 | 14.80554 | 53.16385 | 32879 ft | 470 kts | 211° |
| 2026-05-06 06:47 | 14.74981 | 53.12827 | 32879 ft | 470 kts | 211° |
| 2026-05-06 06:47 | 14.69422 | 53.09280 | 32879 ft | 470 kts | 211° |
| 2026-05-06 06:48 | 14.64036 | 53.05459 | 32878 ft | 471 kts | 222° |
| 2026-05-06 06:48 | 14.59430 | 53.00704 | 32880 ft | 472 kts | 224° |
| 2026-05-06 06:49 | 14.54813 | 52.95871 | 32880 ft | 472 kts | 224° |
| 2026-05-06 06:49 | 14.50209 | 52.91041 | 32880 ft | 472 kts | 225° |
| 2026-05-06 06:50 | 14.45608 | 52.86204 | 32880 ft | 472 kts | 224° |
| 2026-05-06 06:50 | 14.41017 | 52.81374 | 32880 ft | 472 kts | 225° |
| 2026-05-06 06:51 | 14.36424 | 52.76540 | 32880 ft | 472 kts | 225° |
| 2026-05-06 06:51 | 14.31855 | 52.71728 | 32880 ft | 472 kts | 225° |
| 2026-05-06 06:52 | 14.27263 | 52.66892 | 32900 ft | 473 kts | 225° |
| 2026-05-06 06:52 | 14.24958 | 52.64465 | 33157 ft | 473 kts | 225° |
| 2026-05-06 06:52 | 14.22667 | 52.62051 | 33526 ft | 470 kts | 224° |
| 2026-05-06 06:52 | 14.20374 | 52.59637 | 33778 ft | 472 kts | 224° |
| 2026-05-06 06:53 | 14.18061 | 52.57202 | 33853 ft | 473 kts | 224° |
| 2026-05-06 06:53 | 14.13475 | 52.52374 | 33877 ft | 470 kts | 224° |
| 2026-05-06 06:54 | 14.08928 | 52.47591 | 33878 ft | 470 kts | 224° |
| 2026-05-06 06:54 | 14.04350 | 52.42775 | 33878 ft | 470 kts | 224° |
| 2026-05-06 06:55 | 13.99774 | 52.37964 | 33877 ft | 470 kts | 224° |
| 2026-05-06 06:55 | 13.95199 | 52.33158 | 33877 ft | 470 kts | 224° |
| 2026-05-06 06:56 | 13.90624 | 52.28353 | 33876 ft | 470 kts | 224° |
| 2026-05-06 06:56 | 13.86047 | 52.23550 | 33876 ft | 470 kts | 224° |
| 2026-05-06 06:57 | 13.81464 | 52.18742 | 33875 ft | 470 kts | 224° |
| 2026-05-06 06:57 | 13.76920 | 52.13978 | 33874 ft | 470 kts | 224° |
| 2026-05-06 06:58 | 13.72332 | 52.09171 | 33873 ft | 470 kts | 224° |
| 2026-05-06 06:58 | 13.67747 | 52.04370 | 33873 ft | 470 kts | 224° |
| 2026-05-06 06:59 | 13.63166 | 51.99575 | 33871 ft | 470 kts | 224° |
| 2026-05-06 06:59 | 13.58576 | 51.94775 | 33870 ft | 470 kts | 224° |
| 2026-05-06 07:00 | 13.54017 | 51.90009 | 33869 ft | 470 kts | 224° |
| 2026-05-06 07:00 | 13.49431 | 51.85207 | 33868 ft | 470 kts | 224° |
| 2026-05-06 07:01 | 13.44850 | 51.80404 | 33867 ft | 470 kts | 224° |
| 2026-05-06 07:01 | 13.40274 | 51.75602 | 33866 ft | 470 kts | 224° |
| 2026-05-06 07:02 | 13.35699 | 51.70798 | 33865 ft | 470 kts | 224° |
| 2026-05-06 07:02 | 13.31148 | 51.66018 | 33863 ft | 470 kts | 224° |
| 2026-05-06 07:03 | 13.26571 | 51.61211 | 33862 ft | 470 kts | 224° |
| 2026-05-06 07:03 | 13.21993 | 51.56403 | 33860 ft | 470 kts | 224° |
| 2026-05-06 07:04 | 13.17415 | 51.51596 | 33859 ft | 470 kts | 224° |
| 2026-05-06 07:04 | 13.12871 | 51.46825 | 33857 ft | 471 kts | 224° |
| 2026-05-06 07:05 | 13.08295 | 51.42024 | 33855 ft | 471 kts | 224° |
| 2026-05-06 07:05 | 13.03713 | 51.37217 | 33854 ft | 471 kts | 224° |
| 2026-05-06 07:06 | 12.99136 | 51.32418 | 33852 ft | 471 kts | 224° |
| 2026-05-06 07:06 | 12.94552 | 51.27614 | 33850 ft | 471 kts | 224° |
| 2026-05-06 07:07 | 12.89971 | 51.22815 | 33848 ft | 471 kts | 224° |
| 2026-05-06 07:07 | 12.85384 | 51.18014 | 33846 ft | 471 kts | 224° |
| 2026-05-06 07:08 | 12.80815 | 51.13232 | 33844 ft | 471 kts | 224° |
| 2026-05-06 07:08 | 12.76226 | 51.08433 | 33842 ft | 472 kts | 224° |
| 2026-05-06 07:09 | 12.71631 | 51.03629 | 33840 ft | 472 kts | 224° |
| 2026-05-06 07:09 | 12.67030 | 50.98822 | 33838 ft | 472 kts | 224° |
| 2026-05-06 07:10 | 12.62430 | 50.94024 | 33835 ft | 473 kts | 224° |
| 2026-05-06 07:10 | 12.57802 | 50.89225 | 33833 ft | 473 kts | 224° |
| 2026-05-06 07:11 | 12.53213 | 50.84463 | 33831 ft | 473 kts | 224° |
| 2026-05-06 07:11 | 12.48585 | 50.79657 | 33829 ft | 474 kts | 224° |
| 2026-05-06 07:12 | 12.43950 | 50.74842 | 33826 ft | 474 kts | 224° |
| 2026-05-06 07:12 | 12.39320 | 50.70031 | 33824 ft | 475 kts | 224° |
| 2026-05-06 07:13 | 12.34682 | 50.65213 | 33822 ft | 475 kts | 224° |
| 2026-05-06 07:13 | 12.30046 | 50.60397 | 33820 ft | 476 kts | 224° |
| 2026-05-06 07:14 | 12.25391 | 50.55562 | 33817 ft | 476 kts | 224° |
| 2026-05-06 07:14 | 12.20774 | 50.50769 | 33816 ft | 476 kts | 224° |
| 2026-05-06 07:15 | 12.16142 | 50.45907 | 33813 ft | 478 kts | 226° |
| 2026-05-06 07:15 | 12.11686 | 50.40872 | 33811 ft | 478 kts | 226° |
| 2026-05-06 07:16 | 12.07230 | 50.35811 | 33809 ft | 478 kts | 226° |
| 2026-05-06 07:16 | 12.02779 | 50.30756 | 33807 ft | 478 kts | 226° |
| 2026-05-06 07:17 | 11.98343 | 50.25719 | 33805 ft | 479 kts | 226° |
| 2026-05-06 07:17 | 11.93888 | 50.20663 | 33803 ft | 479 kts | 226° |
| 2026-05-06 07:18 | 11.89430 | 50.15604 | 33812 ft | 479 kts | 226° |
| 2026-05-06 07:18 | 11.84970 | 50.10547 | 33810 ft | 479 kts | 226° |
| 2026-05-06 07:19 | 11.80511 | 50.05491 | 33808 ft | 479 kts | 226° |
| 2026-05-06 07:19 | 11.76041 | 50.00426 | 33805 ft | 479 kts | 226° |
| 2026-05-06 07:20 | 11.71610 | 49.95408 | 33803 ft | 479 kts | 226° |
| 2026-05-06 07:20 | 11.67151 | 49.90360 | 33801 ft | 479 kts | 226° |
| 2026-05-06 07:21 | 11.62686 | 49.85308 | 33799 ft | 478 kts | 226° |
| 2026-05-06 07:21 | 11.58233 | 49.80272 | 33797 ft | 478 kts | 226° |
| 2026-05-06 07:22 | 11.53781 | 49.75239 | 33795 ft | 477 kts | 226° |
| 2026-05-06 07:22 | 11.49331 | 49.70211 | 33793 ft | 477 kts | 226° |
| 2026-05-06 07:23 | 11.44890 | 49.65198 | 33792 ft | 476 kts | 226° |
| 2026-05-06 07:23 | 11.40446 | 49.60182 | 33791 ft | 476 kts | 226° |
| 2026-05-06 07:24 | 11.35873 | 49.55377 | 33790 ft | 475 kts | 224° |
| 2026-05-06 07:24 | 11.31200 | 49.50613 | 33789 ft | 475 kts | 224° |
| 2026-05-06 07:25 | 11.26538 | 49.45850 | 33788 ft | 474 kts | 224° |
| 2026-05-06 07:25 | 11.22665 | 49.41890 | 33786 ft | 474 kts | 224° |
| 2026-05-06 07:26 | 11.18010 | 49.37129 | 33786 ft | 473 kts | 224° |
| 2026-05-06 07:26 | 11.13363 | 49.32376 | 33786 ft | 473 kts | 224° |
| 2026-05-06 07:27 | 11.08711 | 49.27618 | 33786 ft | 473 kts | 224° |
| 2026-05-06 07:27 | 11.04072 | 49.22875 | 33786 ft | 472 kts | 224° |
| 2026-05-06 07:28 | 10.99432 | 49.18133 | 33786 ft | 472 kts | 224° |
| 2026-05-06 07:28 | 10.92495 | 49.11046 | 33788 ft | 472 kts | 224° |
| 2026-05-06 07:29 | 10.87866 | 49.06319 | 33789 ft | 472 kts | 224° |
| 2026-05-06 07:29 | 10.83222 | 49.01580 | 33789 ft | 472 kts | 224° |
| 2026-05-06 07:30 | 10.78588 | 48.96853 | 33790 ft | 471 kts | 224° |
| 2026-05-06 07:30 | 10.73976 | 48.92150 | 33792 ft | 471 kts | 224° |
| 2026-05-06 07:31 | 10.69348 | 48.87433 | 33789 ft | 471 kts | 224° |
| 2026-05-06 07:31 | 10.64714 | 48.82714 | 33787 ft | 471 kts | 224° |
| 2026-05-06 07:32 | 10.60080 | 48.77997 | 33789 ft | 471 kts | 224° |
| 2026-05-06 07:32 | 10.55453 | 48.73288 | 33789 ft | 471 kts | 224° |
| 2026-05-06 07:33 | 10.50851 | 48.68608 | 33790 ft | 471 kts | 224° |
| 2026-05-06 07:33 | 10.46223 | 48.63903 | 33790 ft | 471 kts | 224° |
| 2026-05-06 07:34 | 10.41592 | 48.59197 | 33791 ft | 471 kts | 224° |
| 2026-05-06 07:34 | 10.36962 | 48.54494 | 33792 ft | 470 kts | 224° |
| 2026-05-06 07:35 | 10.32331 | 48.49793 | 33792 ft | 470 kts | 224° |
| 2026-05-06 07:35 | 10.27701 | 48.45095 | 33793 ft | 470 kts | 224° |
| 2026-05-06 07:36 | 10.23100 | 48.40429 | 33794 ft | 470 kts | 224° |
| 2026-05-06 07:36 | 10.18473 | 48.35738 | 33795 ft | 470 kts | 224° |
| 2026-05-06 07:37 | 10.13841 | 48.31043 | 33794 ft | 470 kts | 224° |
| 2026-05-06 07:37 | 10.09209 | 48.26351 | 33796 ft | 470 kts | 224° |
| 2026-05-06 07:38 | 10.04580 | 48.21665 | 33795 ft | 470 kts | 224° |
| 2026-05-06 07:38 | 9.99951 | 48.16980 | 33798 ft | 470 kts | 224° |
| 2026-05-06 07:39 | 9.95312 | 48.12288 | 33799 ft | 470 kts | 224° |
| 2026-05-06 07:39 | 9.90712 | 48.07636 | 33800 ft | 470 kts | 224° |
| 2026-05-06 07:40 | 9.86087 | 48.02961 | 33799 ft | 470 kts | 224° |
| 2026-05-06 07:40 | 9.81452 | 47.98279 | 33802 ft | 470 kts | 224° |
| 2026-05-06 07:41 | 9.76811 | 47.93592 | 33803 ft | 470 kts | 224° |
| 2026-05-06 07:41 | 9.72183 | 47.88920 | 33804 ft | 470 kts | 224° |
| 2026-05-06 07:42 | 9.67543 | 47.84238 | 33805 ft | 470 kts | 224° |
| 2026-05-06 07:42 | 9.62910 | 47.79566 | 33806 ft | 470 kts | 224° |
| 2026-05-06 07:43 | 9.58292 | 47.74910 | 33807 ft | 470 kts | 224° |
| 2026-05-06 07:43 | 9.53644 | 47.70225 | 33808 ft | 471 kts | 224° |
| 2026-05-06 07:44 | 9.48998 | 47.65545 | 33809 ft | 471 kts | 224° |
| 2026-05-06 07:44 | 9.44355 | 47.60870 | 33810 ft | 471 kts | 224° |
| 2026-05-06 07:45 | 9.39730 | 47.56215 | 33811 ft | 471 kts | 224° |
| 2026-05-06 07:45 | 9.35082 | 47.51538 | 33812 ft | 471 kts | 224° |
| 2026-05-06 07:46 | 9.30423 | 47.46853 | 33813 ft | 471 kts | 224° |
| 2026-05-06 07:46 | 9.25765 | 47.42170 | 33814 ft | 472 kts | 224° |
| 2026-05-06 07:47 | 9.21111 | 47.37494 | 33815 ft | 472 kts | 224° |
| 2026-05-06 07:47 | 9.16499 | 47.32766 | 33816 ft | 472 kts | 226° |
| 2026-05-06 07:48 | 9.11966 | 47.28011 | 33820 ft | 471 kts | 226° |
| 2026-05-06 07:48 | 9.09689 | 47.25620 | 34081 ft | 471 kts | 226° |
| 2026-05-06 07:48 | 9.07412 | 47.23231 | 34376 ft | 471 kts | 226° |
| 2026-05-06 07:49 | 9.05136 | 47.20841 | 34685 ft | 471 kts | 226° |
| 2026-05-06 07:49 | 9.02869 | 47.18459 | 34995 ft | 470 kts | 226° |
| 2026-05-06 07:49 | 9.00599 | 47.16075 | 35298 ft | 469 kts | 226° |
| 2026-05-06 07:49 | 8.98332 | 47.13693 | 35597 ft | 469 kts | 226° |
| 2026-05-06 07:50 | 8.96061 | 47.11307 | 35763 ft | 472 kts | 226° |
| 2026-05-06 07:50 | 8.93818 | 47.08949 | 35806 ft | 471 kts | 226° |
| 2026-05-06 07:50 | 8.89293 | 47.04195 | 35821 ft | 468 kts | 226° |
| 2026-05-06 07:51 | 8.84775 | 46.99448 | 35822 ft | 468 kts | 226° |
| 2026-05-06 07:51 | 8.80263 | 46.94708 | 35824 ft | 468 kts | 226° |
| 2026-05-06 07:52 | 8.75747 | 46.89965 | 35830 ft | 469 kts | 226° |
| 2026-05-06 07:52 | 8.71222 | 46.85213 | 35825 ft | 468 kts | 226° |
| 2026-05-06 07:53 | 8.66704 | 46.80472 | 35827 ft | 469 kts | 226° |
| 2026-05-06 07:53 | 8.62181 | 46.75726 | 35826 ft | 468 kts | 226° |
| 2026-05-06 07:54 | 8.57663 | 46.70987 | 35829 ft | 468 kts | 226° |
| 2026-05-06 07:54 | 8.53140 | 46.66243 | 35830 ft | 468 kts | 226° |
| 2026-05-06 07:55 | 8.48644 | 46.61531 | 35831 ft | 468 kts | 226° |
| 2026-05-06 07:55 | 8.44119 | 46.56788 | 35832 ft | 468 kts | 226° |
| 2026-05-06 07:56 | 8.39598 | 46.52052 | 35833 ft | 468 kts | 226° |
| 2026-05-06 07:56 | 8.35068 | 46.47309 | 35834 ft | 469 kts | 226° |
| 2026-05-06 07:57 | 8.30536 | 46.42564 | 35834 ft | 469 kts | 226° |
| 2026-05-06 07:57 | 8.26034 | 46.37853 | 35835 ft | 469 kts | 226° |
| 2026-05-06 07:58 | 8.21502 | 46.33108 | 35836 ft | 469 kts | 226° |
| 2026-05-06 07:58 | 8.17005 | 46.28337 | 35837 ft | 469 kts | 226° |
| 2026-05-06 07:59 | 8.12513 | 46.23560 | 35838 ft | 469 kts | 227° |
| 2026-05-06 07:59 | 8.08029 | 46.18791 | 35839 ft | 469 kts | 227° |
| 2026-05-06 08:00 | 8.03541 | 46.14015 | 35840 ft | 469 kts | 227° |
| 2026-05-06 08:00 | 7.99076 | 46.09264 | 35841 ft | 469 kts | 227° |
| 2026-05-06 08:01 | 7.94594 | 46.04494 | 35842 ft | 469 kts | 227° |
| 2026-05-06 08:01 | 7.90106 | 45.99719 | 35843 ft | 469 kts | 227° |
| 2026-05-06 08:02 | 7.85617 | 45.94943 | 35844 ft | 469 kts | 227° |
| 2026-05-06 08:02 | 7.81132 | 45.90172 | 35845 ft | 469 kts | 227° |
| 2026-05-06 08:03 | 7.76647 | 45.85402 | 35846 ft | 469 kts | 227° |
| 2026-05-06 08:03 | 7.72155 | 45.80626 | 35847 ft | 469 kts | 227° |
| 2026-05-06 08:04 | 7.67695 | 45.75887 | 35848 ft | 469 kts | 226° |
| 2026-05-06 08:04 | 7.63195 | 45.71130 | 35849 ft | 469 kts | 226° |
| 2026-05-06 08:05 | 7.58693 | 45.66372 | 35850 ft | 469 kts | 226° |
| 2026-05-06 08:05 | 7.54193 | 45.61615 | 35851 ft | 470 kts | 226° |
| 2026-05-06 08:06 | 7.49679 | 45.56843 | 35852 ft | 470 kts | 226° |
| 2026-05-06 08:06 | 7.45167 | 45.52074 | 35853 ft | 470 kts | 226° |
| 2026-05-06 08:07 | 7.40651 | 45.47300 | 35854 ft | 470 kts | 226° |
| 2026-05-06 08:07 | 7.36134 | 45.42526 | 35854 ft | 470 kts | 226° |
| 2026-05-06 08:08 | 7.31651 | 45.37790 | 35855 ft | 470 kts | 226° |
| 2026-05-06 08:08 | 7.27128 | 45.33012 | 35861 ft | 470 kts | 226° |
| 2026-05-06 08:09 | 7.22611 | 45.28242 | 35866 ft | 470 kts | 226° |
| 2026-05-06 08:09 | 7.18087 | 45.23466 | 35868 ft | 471 kts | 226° |
| 2026-05-06 08:10 | 7.13559 | 45.18686 | 35870 ft | 471 kts | 226° |
| 2026-05-06 08:10 | 7.09035 | 45.13912 | 35870 ft | 471 kts | 226° |
| 2026-05-06 08:11 | 7.04531 | 45.09161 | 35871 ft | 471 kts | 226° |
| 2026-05-06 08:11 | 7.00008 | 45.04391 | 35872 ft | 471 kts | 226° |
| 2026-05-06 08:12 | 6.95473 | 44.99610 | 35879 ft | 471 kts | 226° |
| 2026-05-06 08:12 | 6.90944 | 44.94836 | 35885 ft | 471 kts | 226° |
| 2026-05-06 08:13 | 6.86421 | 44.90071 | 35886 ft | 471 kts | 226° |
| 2026-05-06 08:13 | 6.81891 | 44.85299 | 35887 ft | 471 kts | 226° |
| 2026-05-06 08:14 | 6.77383 | 44.80552 | 35888 ft | 472 kts | 226° |
| 2026-05-06 08:14 | 6.72840 | 44.75768 | 35888 ft | 472 kts | 226° |
| 2026-05-06 08:15 | 6.69059 | 44.71808 | 35889 ft | 472 kts | 226° |
| 2026-05-06 08:15 | 6.64506 | 44.67049 | 35890 ft | 472 kts | 226° |
| 2026-05-06 08:16 | 6.59952 | 44.62288 | 35890 ft | 473 kts | 226° |
| 2026-05-06 08:16 | 6.55387 | 44.57514 | 35891 ft | 473 kts | 226° |
| 2026-05-06 08:17 | 6.50824 | 44.52741 | 35892 ft | 473 kts | 226° |
| 2026-05-06 08:17 | 6.46253 | 44.47958 | 35892 ft | 473 kts | 226° |
| 2026-05-06 08:18 | 6.41692 | 44.43187 | 35893 ft | 473 kts | 226° |
| 2026-05-06 08:18 | 6.37158 | 44.38444 | 35894 ft | 473 kts | 226° |
| 2026-05-06 08:19 | 6.32588 | 44.33664 | 35894 ft | 474 kts | 226° |
| 2026-05-06 08:19 | 6.28016 | 44.28882 | 35895 ft | 474 kts | 226° |
| 2026-05-06 08:20 | 6.23448 | 44.24106 | 35896 ft | 474 kts | 226° |
| 2026-05-06 08:20 | 6.18877 | 44.19327 | 35897 ft | 474 kts | 226° |
| 2026-05-06 08:21 | 6.14308 | 44.14552 | 35897 ft | 474 kts | 226° |
| 2026-05-06 08:21 | 6.09736 | 44.09774 | 35897 ft | 474 kts | 226° |
| 2026-05-06 08:22 | 6.05163 | 44.04997 | 35898 ft | 474 kts | 226° |
| 2026-05-06 08:22 | 6.00615 | 44.00247 | 35899 ft | 474 kts | 226° |
| 2026-05-06 08:23 | 5.96043 | 43.95474 | 35900 ft | 474 kts | 226° |
| 2026-05-06 08:23 | 5.91475 | 43.90704 | 35900 ft | 474 kts | 226° |
| 2026-05-06 08:24 | 5.86899 | 43.85928 | 35901 ft | 474 kts | 226° |
| 2026-05-06 08:24 | 5.82326 | 43.81157 | 35902 ft | 474 kts | 226° |
| 2026-05-06 08:25 | 5.77752 | 43.76386 | 35902 ft | 474 kts | 226° |
| 2026-05-06 08:25 | 5.73182 | 43.71620 | 35903 ft | 474 kts | 226° |
| 2026-05-06 08:26 | 5.68641 | 43.66886 | 35904 ft | 474 kts | 226° |
| 2026-05-06 08:26 | 5.64061 | 43.62141 | 35974 ft | 473 kts | 226° |
| 2026-05-06 08:27 | 5.59466 | 43.57385 | 36008 ft | 474 kts | 226° |
| 2026-05-06 08:27 | 5.54876 | 43.52631 | 36010 ft | 474 kts | 226° |
| 2026-05-06 08:28 | 5.50293 | 43.47882 | 36010 ft | 473 kts | 226° |
| 2026-05-06 08:28 | 5.45713 | 43.43135 | 36009 ft | 473 kts | 226° |
| 2026-05-06 08:29 | 5.41136 | 43.38392 | 36009 ft | 473 kts | 226° |
| 2026-05-06 08:29 | 5.36580 | 43.33671 | 36009 ft | 473 kts | 226° |
| 2026-05-06 08:30 | 5.31997 | 43.28920 | 36004 ft | 473 kts | 226° |
| 2026-05-06 08:30 | 5.27415 | 43.24173 | 35996 ft | 473 kts | 226° |
| 2026-05-06 08:31 | 5.22838 | 43.19431 | 35995 ft | 473 kts | 226° |
| 2026-05-06 08:31 | 5.18274 | 43.14704 | 35992 ft | 473 kts | 226° |
| 2026-05-06 08:32 | 5.13698 | 43.09965 | 35988 ft | 473 kts | 226° |
| 2026-05-06 08:32 | 5.09123 | 43.05227 | 35988 ft | 472 kts | 226° |
| 2026-05-06 08:33 | 5.04551 | 43.00494 | 35988 ft | 472 kts | 226° |
| 2026-05-06 08:33 | 4.99967 | 42.95750 | 35987 ft | 473 kts | 227° |
| 2026-05-06 08:34 | 4.93136 | 42.88682 | 35987 ft | 472 kts | 227° |
| 2026-05-06 08:35 | 4.88556 | 42.83943 | 35987 ft | 472 kts | 227° |
| 2026-05-06 08:35 | 4.83984 | 42.79215 | 35986 ft | 472 kts | 227° |
| 2026-05-06 08:36 | 4.79431 | 42.74508 | 35986 ft | 473 kts | 227° |
| 2026-05-06 08:36 | 4.74853 | 42.69776 | 35986 ft | 473 kts | 227° |
| 2026-05-06 08:37 | 4.70268 | 42.65036 | 35985 ft | 473 kts | 227° |
| 2026-05-06 08:37 | 4.65691 | 42.60306 | 35985 ft | 473 kts | 227° |
| 2026-05-06 08:38 | 4.61105 | 42.55569 | 35984 ft | 473 kts | 227° |
| 2026-05-06 08:38 | 4.56526 | 42.50840 | 35984 ft | 472 kts | 227° |
| 2026-05-06 08:39 | 4.51977 | 42.46142 | 35983 ft | 472 kts | 227° |
| 2026-05-06 08:39 | 4.47396 | 42.41413 | 35983 ft | 472 kts | 227° |
| 2026-05-06 08:40 | 4.42819 | 42.36689 | 35982 ft | 472 kts | 227° |
| 2026-05-06 08:40 | 4.38242 | 42.31965 | 35982 ft | 472 kts | 227° |
| 2026-05-06 08:41 | 4.33665 | 42.27242 | 35981 ft | 472 kts | 227° |
| 2026-05-06 08:41 | 4.29086 | 42.22519 | 35980 ft | 473 kts | 227° |
| 2026-05-06 08:42 | 4.24497 | 42.17786 | 35980 ft | 473 kts | 227° |
| 2026-05-06 08:42 | 4.19943 | 42.13090 | 35979 ft | 473 kts | 227° |
| 2026-05-06 08:43 | 4.15360 | 42.08365 | 35978 ft | 473 kts | 227° |
| 2026-05-06 08:43 | 4.10775 | 42.03638 | 35978 ft | 473 kts | 227° |
| 2026-05-06 08:44 | 4.06191 | 41.98914 | 35977 ft | 473 kts | 227° |
| 2026-05-06 08:44 | 4.01614 | 41.94197 | 35976 ft | 473 kts | 227° |
| 2026-05-06 08:45 | 3.97024 | 41.89468 | 35975 ft | 473 kts | 227° |
| 2026-05-06 08:45 | 3.92293 | 41.84955 | 35976 ft | 474 kts | 220° |
| 2026-05-06 08:46 | 3.87205 | 41.80760 | 35973 ft | 473 kts | 220° |
| 2026-05-06 08:46 | 3.82120 | 41.76589 | 35972 ft | 473 kts | 220° |
| 2026-05-06 08:47 | 3.77022 | 41.72414 | 35971 ft | 473 kts | 220° |
| 2026-05-06 08:47 | 3.71933 | 41.68250 | 35970 ft | 472 kts | 220° |
| 2026-05-06 08:48 | 3.66833 | 41.64079 | 35968 ft | 473 kts | 220° |
| 2026-05-06 08:48 | 3.61736 | 41.59911 | 35967 ft | 472 kts | 220° |
| 2026-05-06 08:49 | 3.56643 | 41.55748 | 35966 ft | 472 kts | 220° |
| 2026-05-06 08:49 | 3.51555 | 41.51589 | 35965 ft | 472 kts | 220° |
| 2026-05-06 08:50 | 3.46496 | 41.47455 | 35963 ft | 472 kts | 220° |
| 2026-05-06 08:50 | 3.41415 | 41.43304 | 35962 ft | 472 kts | 220° |
| 2026-05-06 08:51 | 3.36323 | 41.39144 | 35961 ft | 471 kts | 220° |
| 2026-05-06 08:51 | 3.31237 | 41.34990 | 35959 ft | 472 kts | 220° |
| 2026-05-06 08:52 | 3.26147 | 41.30833 | 35958 ft | 472 kts | 220° |
| 2026-05-06 08:52 | 3.21067 | 41.26685 | 35957 ft | 471 kts | 220° |
| 2026-05-06 08:53 | 3.16021 | 41.22565 | 35956 ft | 471 kts | 220° |
| 2026-05-06 08:53 | 3.10934 | 41.18413 | 35943 ft | 471 kts | 220° |
| 2026-05-06 08:54 | 3.05862 | 41.14273 | 35924 ft | 471 kts | 220° |
| 2026-05-06 08:54 | 3.00778 | 41.10124 | 35923 ft | 471 kts | 220° |
| 2026-05-06 08:55 | 2.95706 | 41.05984 | 35924 ft | 470 kts | 219° |
| 2026-05-06 08:55 | 2.90637 | 41.01848 | 35925 ft | 471 kts | 219° |
| 2026-05-06 08:56 | 2.85555 | 40.97702 | 35925 ft | 471 kts | 219° |
| 2026-05-06 08:56 | 2.80479 | 40.93561 | 35926 ft | 471 kts | 219° |
| 2026-05-06 08:57 | 2.75432 | 40.89444 | 35927 ft | 471 kts | 219° |
| 2026-05-06 08:57 | 2.70326 | 40.85280 | 35927 ft | 470 kts | 219° |
| 2026-05-06 08:58 | 2.65259 | 40.81148 | 35928 ft | 470 kts | 219° |
| 2026-05-06 08:58 | 2.60232 | 40.77049 | 35928 ft | 470 kts | 219° |
| 2026-05-06 08:59 | 2.55152 | 40.72908 | 35929 ft | 470 kts | 219° |
| 2026-05-06 08:59 | 2.50092 | 40.68783 | 35929 ft | 470 kts | 219° |
| 2026-05-06 09:00 | 2.45017 | 40.64646 | 35930 ft | 470 kts | 219° |
| 2026-05-06 09:00 | 2.39977 | 40.60541 | 35931 ft | 470 kts | 219° |
| 2026-05-06 09:01 | 2.34843 | 40.56427 | 35919 ft | 470 kts | 219° |
| 2026-05-06 09:01 | 2.29772 | 40.52369 | 35931 ft | 469 kts | 219° |
| 2026-05-06 09:02 | 2.24672 | 40.48287 | 35932 ft | 469 kts | 219° |
| 2026-05-06 09:02 | 2.19574 | 40.44206 | 35932 ft | 469 kts | 219° |
| 2026-05-06 09:03 | 2.14469 | 40.40119 | 35933 ft | 469 kts | 219° |
| 2026-05-06 09:03 | 2.09403 | 40.36063 | 35933 ft | 469 kts | 219° |
| 2026-05-06 09:04 | 2.04306 | 40.31981 | 35933 ft | 469 kts | 219° |
| 2026-05-06 09:04 | 1.99203 | 40.27895 | 35933 ft | 469 kts | 219° |
| 2026-05-06 09:05 | 1.94968 | 40.24504 | 35933 ft | 470 kts | 219° |
| 2026-05-06 09:05 | 1.89862 | 40.20415 | 35933 ft | 470 kts | 219° |
| 2026-05-06 09:06 | 1.84764 | 40.16332 | 35933 ft | 470 kts | 219° |
| 2026-05-06 09:06 | 1.79661 | 40.12247 | 35934 ft | 470 kts | 219° |
| 2026-05-06 09:07 | 1.74582 | 40.08138 | 35932 ft | 469 kts | 222° |
| 2026-05-06 09:07 | 1.69867 | 40.03629 | 35934 ft | 469 kts | 224° |
| 2026-05-06 09:08 | 1.65183 | 39.99073 | 35934 ft | 469 kts | 224° |
| 2026-05-06 09:08 | 1.60495 | 39.94522 | 35933 ft | 469 kts | 224° |
| 2026-05-06 09:09 | 1.55809 | 39.89978 | 35933 ft | 469 kts | 224° |
| 2026-05-06 09:09 | 1.51120 | 39.85432 | 35933 ft | 469 kts | 224° |
| 2026-05-06 09:10 | 1.46438 | 39.80895 | 35933 ft | 469 kts | 224° |
| 2026-05-06 09:10 | 1.41776 | 39.76377 | 35933 ft | 469 kts | 224° |
| 2026-05-06 09:11 | 1.37093 | 39.71840 | 35933 ft | 469 kts | 224° |
| 2026-05-06 09:11 | 1.32410 | 39.67303 | 35933 ft | 469 kts | 224° |
| 2026-05-06 09:12 | 1.27721 | 39.62761 | 35933 ft | 469 kts | 224° |
| 2026-05-06 09:12 | 1.23030 | 39.58216 | 35939 ft | 470 kts | 224° |
| 2026-05-06 09:13 | 1.18336 | 39.53670 | 35943 ft | 470 kts | 224° |
| 2026-05-06 09:13 | 1.13628 | 39.49110 | 35957 ft | 472 kts | 224° |
| 2026-05-06 09:14 | 1.08930 | 39.44557 | 35921 ft | 469 kts | 224° |
| 2026-05-06 09:14 | 1.04261 | 39.40032 | 35964 ft | 470 kts | 224° |
| 2026-05-06 09:15 | 0.99558 | 39.35480 | 35945 ft | 469 kts | 224° |
| 2026-05-06 09:15 | 0.94902 | 39.30972 | 35945 ft | 468 kts | 224° |
| 2026-05-06 09:16 | 0.90226 | 39.26446 | 35946 ft | 469 kts | 224° |
| 2026-05-06 09:16 | 0.85533 | 39.21902 | 35954 ft | 469 kts | 224° |
| 2026-05-06 09:17 | 0.80843 | 39.17361 | 35956 ft | 469 kts | 224° |
| 2026-05-06 09:17 | 0.76146 | 39.12813 | 35958 ft | 469 kts | 224° |
| 2026-05-06 09:18 | 0.71454 | 39.08271 | 35959 ft | 469 kts | 224° |
| 2026-05-06 09:18 | 0.66763 | 39.03729 | 35963 ft | 469 kts | 224° |
| 2026-05-06 09:19 | 0.62105 | 38.99220 | 35963 ft | 469 kts | 224° |
| 2026-05-06 09:19 | 0.57416 | 38.94681 | 35964 ft | 470 kts | 225° |
| 2026-05-06 09:20 | 0.52712 | 38.90127 | 35966 ft | 470 kts | 225° |
| 2026-05-06 09:20 | 0.48018 | 38.85583 | 35990 ft | 470 kts | 225° |
| 2026-05-06 09:21 | 0.43316 | 38.81031 | 35999 ft | 470 kts | 225° |
| 2026-05-06 09:21 | 0.38629 | 38.76494 | 36002 ft | 469 kts | 224° |
| 2026-05-06 09:22 | 0.33930 | 38.71946 | 36006 ft | 470 kts | 225° |
| 2026-05-06 09:22 | 0.29230 | 38.67397 | 36009 ft | 470 kts | 225° |
| 2026-05-06 09:23 | 0.24537 | 38.62854 | 36013 ft | 470 kts | 225° |
| 2026-05-06 09:23 | 0.19871 | 38.58337 | 36018 ft | 470 kts | 225° |
| 2026-05-06 09:24 | 0.15169 | 38.53786 | 36023 ft | 470 kts | 225° |
| 2026-05-06 09:24 | 0.10471 | 38.49239 | 36028 ft | 470 kts | 225° |
| 2026-05-06 09:25 | 0.05774 | 38.44692 | 36034 ft | 470 kts | 225° |
| 2026-05-06 09:25 | 0.01074 | 38.40144 | 36040 ft | 470 kts | 225° |
| 2026-05-06 09:26 | -0.03621 | 38.35599 | 36048 ft | 470 kts | 225° |
| 2026-05-06 09:26 | -0.08315 | 38.31055 | 36055 ft | 470 kts | 225° |
| 2026-05-06 09:27 | -0.12967 | 38.26553 | 35915 ft | 463 kts | 225° |
| 2026-05-06 09:27 | -0.15299 | 38.24296 | 35058 ft | 462 kts | 225° |
| 2026-05-06 09:27 | -0.17596 | 38.22073 | 33939 ft | 469 kts | 224° |
| 2026-05-06 09:27 | -0.19950 | 38.19793 | 32902 ft | 472 kts | 224° |
| 2026-05-06 09:28 | -0.22315 | 38.17504 | 31993 ft | 472 kts | 224° |
| 2026-05-06 09:28 | -0.24659 | 38.15236 | 31327 ft | 466 kts | 224° |
| 2026-05-06 09:28 | -0.26975 | 38.12994 | 30582 ft | 462 kts | 224° |
| 2026-05-06 09:28 | -0.29276 | 38.10767 | 29861 ft | 459 kts | 224° |
| 2026-05-06 09:29 | -0.31564 | 38.08553 | 29207 ft | 454 kts | 224° |
| 2026-05-06 09:29 | -0.33816 | 38.06373 | 28589 ft | 449 kts | 224° |
| 2026-05-06 09:29 | -0.36047 | 38.04214 | 27968 ft | 444 kts | 224° |
| 2026-05-06 09:29 | -0.38227 | 38.02103 | 27371 ft | 439 kts | 224° |
| 2026-05-06 09:30 | -0.40441 | 37.99960 | 26751 ft | 435 kts | 224° |
| 2026-05-06 09:30 | -0.42576 | 37.97894 | 26178 ft | 430 kts | 224° |
| 2026-05-06 09:30 | -0.44714 | 37.95826 | 25585 ft | 425 kts | 225° |
| 2026-05-06 09:30 | -0.46828 | 37.93779 | 24932 ft | 422 kts | 225° |
| 2026-05-06 09:31 | -0.48927 | 37.91746 | 24321 ft | 418 kts | 224° |
| 2026-05-06 09:31 | -0.51007 | 37.89731 | 23712 ft | 413 kts | 224° |
| 2026-05-06 09:31 | -0.53063 | 37.87740 | 23096 ft | 410 kts | 224° |
| 2026-05-06 09:31 | -0.55100 | 37.85768 | 22490 ft | 406 kts | 224° |
| 2026-05-06 09:32 | -0.57121 | 37.83811 | 21873 ft | 403 kts | 224° |
| 2026-05-06 09:32 | -0.59128 | 37.81868 | 21309 ft | 399 kts | 224° |
| 2026-05-06 09:32 | -0.61118 | 37.79941 | 20738 ft | 396 kts | 224° |
| 2026-05-06 09:32 | -0.63086 | 37.78036 | 20149 ft | 393 kts | 224° |
| 2026-05-06 09:33 | -0.65041 | 37.76143 | 19621 ft | 389 kts | 224° |
| 2026-05-06 09:33 | -0.66954 | 37.74290 | 19083 ft | 386 kts | 224° |
| 2026-05-06 09:33 | -0.68876 | 37.72430 | 18532 ft | 384 kts | 224° |
| 2026-05-06 09:33 | -0.70784 | 37.70583 | 17983 ft | 382 kts | 224° |
| 2026-05-06 09:34 | -0.72688 | 37.68739 | 17431 ft | 379 kts | 224° |
| 2026-05-06 09:34 | -0.74575 | 37.66912 | 16881 ft | 377 kts | 224° |
| 2026-05-06 09:34 | -0.76456 | 37.65090 | 16328 ft | 375 kts | 224° |
| 2026-05-06 09:34 | -0.78320 | 37.63285 | 15780 ft | 372 kts | 224° |
| 2026-05-06 09:35 | -0.80178 | 37.61487 | 15227 ft | 370 kts | 224° |
| 2026-05-06 09:35 | -0.82024 | 37.59699 | 14676 ft | 368 kts | 224° |
| 2026-05-06 09:35 | -0.83860 | 37.57922 | 14126 ft | 366 kts | 224° |
| 2026-05-06 09:35 | -0.85692 | 37.56148 | 13578 ft | 365 kts | 224° |
| 2026-05-06 09:36 | -0.87516 | 37.54382 | 13024 ft | 364 kts | 224° |
| 2026-05-06 09:36 | -0.89330 | 37.52625 | 12464 ft | 361 kts | 224° |
| 2026-05-06 09:36 | -0.91118 | 37.50893 | 11898 ft | 354 kts | 224° |
| 2026-05-06 09:36 | -0.92874 | 37.49193 | 11371 ft | 353 kts | 224° |
| 2026-05-06 09:37 | -0.94598 | 37.47523 | 10826 ft | 346 kts | 224° |
| 2026-05-06 09:37 | -0.96339 | 37.45838 | 10285 ft | 349 kts | 224° |
| 2026-05-06 09:37 | -0.98092 | 37.44142 | 9755 ft | 353 kts | 224° |
| 2026-05-06 09:37 | -0.99882 | 37.42409 | 9194 ft | 359 kts | 224° |
| 2026-05-06 09:38 | -1.01680 | 37.40665 | 8913 ft | 358 kts | 223° |
| 2026-05-06 09:38 | -1.03421 | 37.38978 | 8907 ft | 343 kts | 223° |
| 2026-05-06 09:38 | -1.05101 | 37.37352 | 8897 ft | 330 kts | 224° |
| 2026-05-06 09:38 | -1.06713 | 37.35789 | 8864 ft | 315 kts | 223° |
| 2026-05-06 09:39 | -1.08249 | 37.34301 | 8863 ft | 300 kts | 223° |
| 2026-05-06 09:39 | -1.09706 | 37.32891 | 8920 ft | 285 kts | 223° |
| 2026-05-06 09:39 | -1.10174 | 37.32437 | 8952 ft | 281 kts | 223° |
| 2026-05-06 09:39 | -1.11227 | 37.31417 | 8965 ft | 273 kts | 223° |
| 2026-05-06 09:40 | -1.12577 | 37.30107 | 8971 ft | 262 kts | 223° |
| 2026-05-06 09:40 | -1.13854 | 37.28872 | 8978 ft | 256 kts | 223° |
| 2026-05-06 09:40 | -1.16376 | 37.26430 | 8985 ft | 249 kts | 223° |
| 2026-05-06 09:41 | -1.17610 | 37.25235 | 8984 ft | 246 kts | 223° |
| 2026-05-06 09:41 | -1.18826 | 37.24059 | 8991 ft | 243 kts | 223° |
| 2026-05-06 09:41 | -1.20037 | 37.22886 | 8987 ft | 240 kts | 223° |
| 2026-05-06 09:41 | -1.21233 | 37.21728 | 8994 ft | 240 kts | 223° |
| 2026-05-06 09:42 | -1.22446 | 37.20554 | 9004 ft | 243 kts | 223° |
| 2026-05-06 09:42 | -1.23653 | 37.19384 | 8986 ft | 241 kts | 223° |
| 2026-05-06 09:42 | -1.24487 | 37.18576 | 8991 ft | 238 kts | 223° |
| 2026-05-06 09:42 | -1.25672 | 37.17429 | 8991 ft | 236 kts | 223° |
| 2026-05-06 09:43 | -1.26836 | 37.16302 | 8995 ft | 236 kts | 223° |
| 2026-05-06 09:43 | -1.27999 | 37.15151 | 8995 ft | 235 kts | 226° |
| 2026-05-06 09:43 | -1.29076 | 37.13914 | 8996 ft | 236 kts | 231° |
| 2026-05-06 09:43 | -1.30066 | 37.12606 | 8998 ft | 236 kts | 233° |
| 2026-05-06 09:44 | -1.31034 | 37.11281 | 8997 ft | 236 kts | 233° |
| 2026-05-06 09:44 | -1.32000 | 37.09953 | 8997 ft | 236 kts | 233° |
| 2026-05-06 09:44 | -1.32961 | 37.08628 | 8998 ft | 236 kts | 233° |
| 2026-05-06 09:44 | -1.33925 | 37.07297 | 8998 ft | 236 kts | 233° |
| 2026-05-06 09:45 | -1.34875 | 37.05985 | 8998 ft | 236 kts | 233° |
| 2026-05-06 09:45 | -1.35846 | 37.04640 | 8999 ft | 236 kts | 233° |
| 2026-05-06 09:45 | -1.36796 | 37.03326 | 8998 ft | 235 kts | 233° |
| 2026-05-06 09:45 | -1.37766 | 37.01983 | 9004 ft | 239 kts | 233° |
| 2026-05-06 09:46 | -1.38735 | 37.00641 | 8998 ft | 237 kts | 233° |
| 2026-05-06 09:46 | -1.39695 | 36.99312 | 8998 ft | 236 kts | 233° |
| 2026-05-06 09:46 | -1.40655 | 36.97983 | 8999 ft | 236 kts | 233° |
| 2026-05-06 09:46 | -1.41615 | 36.96654 | 9000 ft | 236 kts | 233° |
| 2026-05-06 09:47 | -1.42576 | 36.95323 | 8998 ft | 236 kts | 233° |
| 2026-05-06 09:47 | -1.43528 | 36.94005 | 8823 ft | 232 kts | 233° |
| 2026-05-06 09:47 | -1.44480 | 36.92686 | 8462 ft | 234 kts | 233° |
| 2026-05-06 09:47 | -1.45433 | 36.91367 | 8184 ft | 233 kts | 233° |
| 2026-05-06 09:48 | -1.46371 | 36.90067 | 8049 ft | 232 kts | 233° |
| 2026-05-06 09:48 | -1.47325 | 36.88744 | 8024 ft | 234 kts | 233° |
| 2026-05-06 09:48 | -1.48265 | 36.87444 | 8016 ft | 234 kts | 233° |
| 2026-05-06 09:48 | -1.49208 | 36.86121 | 8011 ft | 233 kts | 237° |
| 2026-05-06 09:49 | -1.49826 | 36.84631 | 8009 ft | 234 kts | 257° |
| 2026-05-06 09:49 | -1.49818 | 36.83008 | 8026 ft | 235 kts | 277° |
| 2026-05-06 09:49 | -1.49567 | 36.81391 | 8019 ft | 235 kts | 278° |
| 2026-05-06 09:49 | -1.49312 | 36.79779 | 8026 ft | 235 kts | 278° |
| 2026-05-06 09:50 | -1.49039 | 36.78167 | 8023 ft | 235 kts | 283° |
| 2026-05-06 09:50 | -1.48381 | 36.76706 | 8018 ft | 235 kts | 306° |
| 2026-05-06 09:50 | -1.47147 | 36.75652 | 8022 ft | 236 kts | 334° |
| 2026-05-06 09:50 | -1.46097 | 36.75334 | 8026 ft | 234 kts | 353° |
| 2026-05-06 09:51 | -1.44500 | 36.75534 | 8027 ft | 234 kts | 22° |
| 2026-05-06 09:51 | -1.43197 | 36.76477 | 8028 ft | 233 kts | 51° |
| 2026-05-06 09:51 | -1.42412 | 36.77891 | 8049 ft | 233 kts | 64° |
| 2026-05-06 09:51 | -1.41352 | 36.79731 | 8022 ft | 224 kts | 57° |
| 2026-05-06 09:52 | -1.40768 | 36.80592 | 7993 ft | 221 kts | 56° |
| 2026-05-06 09:52 | -1.39871 | 36.81858 | 7740 ft | 221 kts | 54° |
| 2026-05-06 09:52 | -1.38988 | 36.83077 | 7457 ft | 210 kts | 54° |
| 2026-05-06 09:52 | -1.38156 | 36.84224 | 7162 ft | 198 kts | 54° |
| 2026-05-06 09:53 | -1.37367 | 36.85306 | 6889 ft | 188 kts | 54° |
| 2026-05-06 09:53 | -1.36616 | 36.86337 | 6642 ft | 182 kts | 54° |
| 2026-05-06 09:53 | -1.35880 | 36.87345 | 6415 ft | 175 kts | 55° |
| 2026-05-06 09:53 | -1.35205 | 36.88273 | 6171 ft | 161 kts | 56° |
| 2026-05-06 09:54 | -1.34548 | 36.89171 | 5950 ft | 160 kts | 55° |
| 2026-05-06 09:54 | -1.33898 | 36.90066 | 5730 ft | 157 kts | 56° |
| 2026-05-06 09:54 | -1.33252 | 36.90957 | 5526 ft | 157 kts | 56° |
| 2026-05-06 09:54 | -1.32605 | 36.91839 | 5346 ft | 156 kts | 55° |
| 2026-05-06 09:55 | -1.32121 | 36.92514 | 5343 ft | 77 kts | 53° |
| 2026-05-06 09:55 | -1.31955 | 36.92752 | 5343 ft | 23 kts | 75° |
| 2026-05-06 09:55 | -1.32026 | 36.92854 | 5343 ft | 19 kts | 146° |
| 2026-05-06 09:55 | -1.32131 | 36.92930 | 5343 ft | 16 kts | 144° |
| 2026-05-06 09:56 | -1.32226 | 36.92931 | 5343 ft | 16 kts | 234° |
| 2026-05-06 09:56 | -1.32289 | 36.92844 | 5343 ft | 15 kts | 234° |
| 2026-05-06 09:56 | -1.32351 | 36.92758 | 5343 ft | 15 kts | 233° |
| 2026-05-06 09:56 | -1.32413 | 36.92674 | 5343 ft | 15 kts | 234° |
| 2026-05-06 09:57 | -1.32473 | 36.92590 | 5343 ft | 15 kts | 234° |
| 2026-05-06 09:57 | -1.32532 | 36.92506 | 5343 ft | 15 kts | 235° |
| 2026-05-06 09:57 | -1.32591 | 36.92424 | 5343 ft | 14 kts | 234° |
| 2026-05-06 09:57 | -1.32628 | 36.92372 | 5343 ft | 8 kts | 234° |
| 2026-05-06 09:58 | -1.32672 | 36.92342 | 5343 ft | 8 kts | 169° |
| 2026-05-06 09:58 | -1.32719 | 36.92374 | 5343 ft | 8 kts | 143° |
| 2026-05-06 09:58 | -1.32763 | 36.92407 | 5343 ft | 8 kts | 137° |
| 2026-05-06 09:58 | -1.32770 | 36.92457 | 5343 ft | 8 kts | 81° |
| 2026-05-06 09:59 | -1.32763 | 36.92509 | 5343 ft | 7 kts | 87° |
| 2026-05-06 09:59 | -1.32771 | 36.92559 | 5343 ft | 7 kts | 118° |
| 2026-05-06 09:59 | -1.32793 | 36.92566 | 5343 ft | 3 kts | 193° |